KLSV/LSV METAR and TAF weather

Enter ICAO airport designator
Station Type Date Time Source
KLSV METAR 2021/04/18 01:58 UTC NOAA

KLSV 180158Z AUTO 36014KT 10SM CLR 21/M06 A2999 RMK AO2 SLP144 T02121065 $


Station Type Date Time Source
KLSV Decoded METAR 2021/04/18 01:58 UTC NOAA

Nellis Air Force Base, NV, United States (KLSV) 36-14N 115-02W
Apr 17, 2021 - 09:58 PM EDT / 2021.04.18 0158 UTC
Wind: from the N (360 degrees) at 16 MPH (14 KT):0
Visibility: 10 mile(s):0
Sky conditions: clear
Temperature: 70.2 F (21.2 C)
Dew Point: 20.3 F (-6.5 C)
Relative Humidity: 14%
Pressure (altimeter): 29.99 in. Hg (1015 hPa)
ob: KLSV 180158Z AUTO 36014KT 10SM CLR 21/M06 A2999 RMK AO2 SLP144 T02121065
cycle: 2

Station Type Date Time Source
KLSV TAF 2021/04/17 23:48 UTC NOAA

TAF TAF KLSV 172300Z 1723/1905 02012G18KT 9999 SCT110 510009 QNH2993INS
TEMPO 1723/1802 03015G25KT 520009
BECMG 1801/1802 04012G20KT 9999 FEW110 510009 QNH2995INS
BECMG 1806/1807 04012G20KT 9999 SKC 510009 QNH3007INS
TEMPO 1816/1820 03015G27KT 520009
BECMG 1819/1820 03015G27KT 9999 SKC 520009 QNH2995INS
BECMG 1900/1901 03012G18KT 9999 SKC QNH2997INS TX26/1823Z TN12/1813Z

Example: see airport list